Terminal Aerodrome Forecast
Issued by NWS Portland, OR

Home | Current Version | Previous Version | Text Only | Print | Product List | Glossary On
Versions: 1 2 3 4 5 6 7 8 9 10 11 12 13 14 15 16 17 18 19 20 21
000
FTUS46 KPQR 291120
TAFEUG
TAF
KEUG 291120Z 2912/3012 VRB03KT 1/2SM FG BKN002
     FM291700 VRB03KT P6SM SKC
     FM292100 26008KT P6SM BKN100
     FM300500 20009KT P6SM OVC050
     FM300700 19010KT P6SM -RA SCT035 OVC050=

USA.gov is the U.S. government's official web portal to all federal, state and local government web resources and services.